Relevés horaires Koksijde (Belgique)


Relevés horaires à Koksijde - Mardi 23 Avr. 2024
Heure UTC1 Température [°C] Vent [km/h] Hum. [%] Pres.4 [hPa] Visi. [Km] Nébu. [octa] Préc.5 [mm] Cond.
2m. Res. Ros. Dir.2 Vit. Moy. Raf.3
23:00 7.4 5 3.1 NNO 13.0 -- 18.5 74 1017.7(-0.7/3h) 11 -- -- --
22:00 7.3 4.9 2.3 N 13.0 -- 24.1 70 1018.1(-0.1/3h) 20 -- -- --
21:00 7.9 5.6 3.0 N 13.0 -- 24.1 71 1018.2(-0.2/3h) 20 -- -- NA
20:00 8.0 6 4.6 N 11.1 -- 24.1 79 1018.3(-0.5/3h) 20 -- -- NA
19:00 8.1 6.9 6.0 ONO 7.4 -- 13.0 87 1018.2(-1.2/3h) 20 -- -- NA
18:00 8.8 7.3 5.8 ONO 9.3 -- 14.8 81 1018.5(-1.4/3h) 19 -- -- --
17:00 8.2 6.6 5.4 ONO 9.3 -- 14.8 82 1018.8(-1.5/3h) 19 -- -- --
16:00 8.8 7.3 4.4 ONO 9.3 -- 14.8 74 1019.3(-1.6/3h) 20 -- -- --
15:00 8.7 7.2 3.6 NO 9.3 -- 14.8 70 1020(-1.5/3h) 20 -- -- --
14:00 9.1 7.7 2.4 ONO 9.3 -- 14.8 63 1020.5(-1.5/3h) 20 6/8 -- --
13:00 9.2 8.2 0.8 ONO 7.4 -- 14.8 56 1021.1(-1.2/3h) 20 6/8 -- --
12:00 9.5 9 1.4 NO 5.6 -- 11.1 57 1021.5(-1.4/3h) 20 6/8 -- --
11:00 8.0 8.0 0.6 ONO 3.7 -- 7.4 59 1022(-1.0/3h) 20 5/8 -- --
10:00 8.6 8.6 -- NNO 1.9 -- 5.6 -- 1022.3(-0.6/3h) 20 5/8 -- --
09:00 7.4 7.4 -0.8 NNO 1.9 -- 3.7 56 1022.8(-0.2/3h) 20 5/8 -- --
08:00 6.7 6.7 -0.8 NNO 1.9 -- 3.7 59 1023(0.0/3h) 20 5/8 -- --
07:00 7.0 7.0 -0.9 NNO 1.9 -- 1.9 57 1023.1(0.0/3h) 20 5/8 -- --
06:00 4.0 4.0 0.3 NNO 1.9 -- 1.9 77 1023.2(-0.1/3h) 20 4/8 -- --
05:00 2.4 2.4 -1.8 NNO 1.9 -- 0.0 74 1023(-0.6/3h) 20 4/8 -- --
04:00 2.0 2.0 -2.1 NNO 1.9 -- 1.9 74 1023.1(-0.9/3h) 20 -- -- --
03:00 3.2 3.2 -1.8 NNO 1.9 -- 1.9 70 1023.2(-0.9/3h) 20 -- -- --
02:00 2.5 2.5 -1.4 NNO 1.9 -- 0.0 75 1023.6(-0.9/3h) 20 -- -- --
01:00 2.7 2.7 -1.7 NNO 1.9 -- 1.9 73 1024(-0.5/3h) 20 -- -- --
00:00 3.0 3.0 -0.7 NNO 1.9 -- 14.8 77 1024.2(-0.3/3h) 20 -- -- --

1 Coordinated Universal Time. Actuellement il est 20:00 locale et 18:00 UTC.

2 Le vent souffle depuis la direction indiquée vers la direction oposée.

3 Les rafales max. sont disponible 40 min après l'heure du relevé.

4 Pour les stations d'altitude (plus de 600m) le géopotentiel du niveau le plus proche de la pression obligatoire est indiqué.

5 Les stations disposant d'un diffuseur peuvent indiquer "trace". Cela signifie que des précipitations ont touchés le sol mais que la quantité est inférieure à 0.1 mm.

Récapitulatif de la journée
Température [°C] Vent [km/h] Ensoleillement4 [h] Precipitations totale5 [mm] Pression [Hpa]
Min1 Max.2 Moy.3 Max. Min Max.
1.6 10.7 0 24.1 0 h 0 min 0 1017.7 1024.2

1 Température minimale relevée entre 18:00 UTC la veille et 18:00 UTC le jour donné.

2 Température maximale relevée entre 06:00 UTC le jour donné et 06:00 UTC le lendemain.

3 Vent moyen de la journée basé sur les relevés horaires.

4 Ensoleillement en heures relevé entre 06:00 UTC la veille et 06:00 UTC le jour donné.

5 Précipitations totales tombées entre 06:00 UTC la jour donné et 06:00 UTC le lendemain.

Graphiques horaires